sensor_id;sensor_type;location;lat;lon;timestamp;pressure;altitude;pressure_sealevel;temperature;humidity
42297;BME280;72430;47.456;19.016;2024-02-21T00:02:45;101153.28;;;8.17;73.60
42297;BME280;72430;47.456;19.016;2024-02-21T00:05:47;101149.31;;;8.23;73.68
42297;BME280;72430;47.456;19.016;2024-02-21T00:08:49;101153.94;;;8.21;73.38
42297;BME280;72430;47.456;19.016;2024-02-21T00:11:51;101148.75;;;8.45;71.67
42297;BME280;72430;47.456;19.016;2024-02-21T00:14:53;101149.22;;;8.25;73.23
42297;BME280;72430;47.456;19.016;2024-02-21T00:17:55;101145.50;;;8.40;72.01
42297;BME280;72430;47.456;19.016;2024-02-21T00:20:56;101137.31;;;8.42;72.16
42297;BME280;72430;47.456;19.016;2024-02-21T00:23:58;101141.41;;;8.35;72.78
42297;BME280;72430;47.456;19.016;2024-02-21T00:27:00;101131.03;;;8.43;71.86
42297;BME280;72430;47.456;19.016;2024-02-21T00:30:02;101130.59;;;8.49;71.80
42297;BME280;72430;47.456;19.016;2024-02-21T00:33:04;101136.59;;;8.40;70.85
42297;BME280;72430;47.456;19.016;2024-02-21T00:36:07;101121.38;;;8.53;71.09
42297;BME280;72430;47.456;19.016;2024-02-21T00:39:08;101120.94;;;8.46;70.69
42297;BME280;72430;47.456;19.016;2024-02-21T00:42:10;101121.09;;;8.58;70.22
42297;BME280;72430;47.456;19.016;2024-02-21T00:45:12;101117.06;;;8.51;70.46
42297;BME280;72430;47.456;19.016;2024-02-21T00:48:14;101119.63;;;8.39;70.16
42297;BME280;72430;47.456;19.016;2024-02-21T00:51:16;101114.41;;;8.64;69.47
42297;BME280;72430;47.456;19.016;2024-02-21T00:54:18;101117.69;;;8.41;70.14
42297;BME280;72430;47.456;19.016;2024-02-21T00:57:20;101116.34;;;8.08;72.52
42297;BME280;72430;47.456;19.016;2024-02-21T01:00:22;101109.72;;;8.27;71.31
42297;BME280;72430;47.456;19.016;2024-02-21T01:03:24;101118.00;;;8.24;70.61
42297;BME280;72430;47.456;19.016;2024-02-21T01:06:25;101110.69;;;8.26;70.85
42297;BME280;72430;47.456;19.016;2024-02-21T01:09:27;101113.91;;;8.31;70.32
42297;BME280;72430;47.456;19.016;2024-02-21T01:12:29;101123.13;;;8.27;70.41
42297;BME280;72430;47.456;19.016;2024-02-21T01:15:31;101109.44;;;8.31;69.63
42297;BME280;72430;47.456;19.016;2024-02-21T01:18:34;101114.34;;;8.25;70.45
42297;BME280;72430;47.456;19.016;2024-02-21T01:21:36;101119.63;;;8.39;69.31
42297;BME280;72430;47.456;19.016;2024-02-21T01:24:37;101113.50;;;8.37;69.67
42297;BME280;72430;47.456;19.016;2024-02-21T01:27:39;101101.38;;;8.31;69.11
42297;BME280;72430;47.456;19.016;2024-02-21T01:30:41;101111.34;;;8.29;68.96
42297;BME280;72430;47.456;19.016;2024-02-21T01:33:43;101103.13;;;8.45;68.33
42297;BME280;72430;47.456;19.016;2024-02-21T01:36:44;101099.31;;;8.22;69.23
42297;BME280;72430;47.456;19.016;2024-02-21T01:39:46;101101.91;;;8.24;68.74
42297;BME280;72430;47.456;19.016;2024-02-21T01:42:48;101101.44;;;8.17;69.38
42297;BME280;72430;47.456;19.016;2024-02-21T01:45:53;101098.66;;;8.18;69.50
42297;BME280;72430;47.456;19.016;2024-02-21T01:48:57;101101.47;;;8.30;68.83
42297;BME280;72430;47.456;19.016;2024-02-21T01:52:00;101097.28;;;8.26;69.41
42297;BME280;72430;47.456;19.016;2024-02-21T01:55:02;101099.34;;;7.95;71.64
42297;BME280;72430;47.456;19.016;2024-02-21T01:58:04;101100.63;;;7.89;71.31
42297;BME280;72430;47.456;19.016;2024-02-21T02:01:06;101091.63;;;7.90;71.09
42297;BME280;72430;47.456;19.016;2024-02-21T02:04:08;101088.63;;;7.95;71.60
42297;BME280;72430;47.456;19.016;2024-02-21T02:07:10;101080.59;;;7.95;71.10
42297;BME280;72430;47.456;19.016;2024-02-21T02:10:13;101086.94;;;8.06;70.45
42297;BME280;72430;47.456;19.016;2024-02-21T02:13:14;101090.84;;;7.88;71.40
42297;BME280;72430;47.456;19.016;2024-02-21T02:16:16;101107.50;;;7.93;71.22
42297;BME280;72430;47.456;19.016;2024-02-21T02:19:18;101102.91;;;8.08;70.07
42297;BME280;72430;47.456;19.016;2024-02-21T02:22:24;101097.28;;;8.13;69.42
42297;BME280;72430;47.456;19.016;2024-02-21T02:25:29;101098.06;;;8.00;70.94
42297;BME280;72430;47.456;19.016;2024-02-21T02:28:31;101090.91;;;8.01;70.64
42297;BME280;72430;47.456;19.016;2024-02-21T02:31:33;101088.81;;;7.91;70.72
42297;BME280;72430;47.456;19.016;2024-02-21T02:34:35;101088.78;;;8.06;69.91
42297;BME280;72430;47.456;19.016;2024-02-21T02:37:37;101087.38;;;8.13;69.21
42297;BME280;72430;47.456;19.016;2024-02-21T02:40:41;101093.91;;;8.09;69.40
42297;BME280;72430;47.456;19.016;2024-02-21T02:43:43;101089.59;;;8.06;69.12
42297;BME280;72430;47.456;19.016;2024-02-21T02:46:45;101087.47;;;7.99;69.29
42297;BME280;72430;47.456;19.016;2024-02-21T02:49:47;101085.28;;;7.91;69.68
42297;BME280;72430;47.456;19.016;2024-02-21T02:52:53;101086.72;;;8.10;68.24
42297;BME280;72430;47.456;19.016;2024-02-21T02:55:55;101090.09;;;8.26;67.18
42297;BME280;72430;47.456;19.016;2024-02-21T02:58:56;101091.16;;;8.24;67.43
42297;BME280;72430;47.456;19.016;2024-02-21T03:01:58;101094.47;;;8.14;67.37
42297;BME280;72430;47.456;19.016;2024-02-21T03:05:00;101099.94;;;7.72;69.41
42297;BME280;72430;47.456;19.016;2024-02-21T03:08:02;101100.00;;;7.98;68.21
42297;BME280;72430;47.456;19.016;2024-02-21T03:11:08;101096.31;;;7.59;70.42
42297;BME280;72430;47.456;19.016;2024-02-21T03:14:10;101101.06;;;7.41;71.10
42297;BME280;72430;47.456;19.016;2024-02-21T03:17:12;101095.63;;;7.42;71.14
42297;BME280;72430;47.456;19.016;2024-02-21T03:20:14;101085.75;;;7.43;71.20
42297;BME280;72430;47.456;19.016;2024-02-21T03:23:16;101097.59;;;7.38;71.83
42297;BME280;72430;47.456;19.016;2024-02-21T03:26:18;101096.19;;;7.33;72.19
42297;BME280;72430;47.456;19.016;2024-02-21T03:29:20;101101.06;;;7.41;71.29
42297;BME280;72430;47.456;19.016;2024-02-21T03:32:21;101102.16;;;7.09;72.67
42297;BME280;72430;47.456;19.016;2024-02-21T03:35:23;101105.38;;;7.29;71.54
42297;BME280;72430;47.456;19.016;2024-02-21T03:38:28;101109.44;;;7.07;72.79
42297;BME280;72430;47.456;19.016;2024-02-21T03:41:30;101111.72;;;6.98;72.99
42297;BME280;72430;47.456;19.016;2024-02-21T03:44:32;101106.28;;;6.85;73.52
42297;BME280;72430;47.456;19.016;2024-02-21T03:47:34;101115.25;;;6.84;73.08
42297;BME280;72430;47.456;19.016;2024-02-21T03:50:36;101105.13;;;6.90;73.50
42297;BME280;72430;47.456;19.016;2024-02-21T03:53:38;101107.72;;;6.77;73.78
42297;BME280;72430;47.456;19.016;2024-02-21T03:56:40;101102.13;;;7.23;71.19
42297;BME280;72430;47.456;19.016;2024-02-21T03:59:41;101097.56;;;7.25;70.99
42297;BME280;72430;47.456;19.016;2024-02-21T04:02:45;101103.75;;;7.26;70.46
42297;BME280;72430;47.456;19.016;2024-02-21T04:05:47;101102.03;;;7.39;70.23
42297;BME280;72430;47.456;19.016;2024-02-21T04:08:48;101094.00;;;7.39;70.55
42297;BME280;72430;47.456;19.016;2024-02-21T04:11:50;101095.78;;;7.39;70.15
42297;BME280;72430;47.456;19.016;2024-02-21T04:14:52;101095.13;;;7.35;71.06
42297;BME280;72430;47.456;19.016;2024-02-21T04:17:54;101103.09;;;7.22;71.27
42297;BME280;72430;47.456;19.016;2024-02-21T04:20:56;101095.16;;;7.21;71.84
42297;BME280;72430;47.456;19.016;2024-02-21T04:23:58;101092.72;;;7.03;72.92
42297;BME280;72430;47.456;19.016;2024-02-21T04:27:00;101090.88;;;7.04;72.71
42297;BME280;72430;47.456;19.016;2024-02-21T04:30:02;101094.69;;;7.14;72.51
42297;BME280;72430;47.456;19.016;2024-02-21T04:33:04;101093.91;;;7.12;72.22
42297;BME280;72430;47.456;19.016;2024-02-21T04:36:08;101090.22;;;6.85;73.46
42297;BME280;72430;47.456;19.016;2024-02-21T04:39:10;101082.84;;;7.04;72.95
42297;BME280;72430;47.456;19.016;2024-02-21T04:42:13;101093.84;;;6.99;73.07
42297;BME280;72430;47.456;19.016;2024-02-21T04:45:15;101097.47;;;7.12;72.69
42297;BME280;72430;47.456;19.016;2024-02-21T04:48:16;101085.13;;;7.10;72.47
42297;BME280;72430;47.456;19.016;2024-02-21T04:51:18;101095.09;;;7.08;72.99
42297;BME280;72430;47.456;19.016;2024-02-21T04:54:20;101089.06;;;6.90;74.28
42297;BME280;72430;47.456;19.016;2024-02-21T04:57:22;101094.22;;;6.93;73.38
42297;BME280;72430;47.456;19.016;2024-02-21T05:00:23;101100.72;;;6.89;74.31
42297;BME280;72430;47.456;19.016;2024-02-21T05:03:25;101094.72;;;6.85;73.36
42297;BME280;72430;47.456;19.016;2024-02-21T05:06:27;101102.84;;;6.98;73.35
42297;BME280;72430;47.456;19.016;2024-02-21T05:09:29;101106.09;;;7.03;73.25
42297;BME280;72430;47.456;19.016;2024-02-21T05:12:30;101120.97;;;6.78;75.08
42297;BME280;72430;47.456;19.016;2024-02-21T05:15:32;101114.84;;;6.47;75.58
42297;BME280;72430;47.456;19.016;2024-02-21T05:18:36;101117.44;;;6.63;74.21
42297;BME280;72430;47.456;19.016;2024-02-21T05:21:38;101110.44;;;6.46;74.79
42297;BME280;72430;47.456;19.016;2024-02-21T05:24:39;101100.47;;;6.34;75.12
42297;BME280;72430;47.456;19.016;2024-02-21T05:27:41;101098.22;;;5.95;76.96
42297;BME280;72430;47.456;19.016;2024-02-21T05:30:43;101100.28;;;5.90;78.14
42297;BME280;72430;47.456;19.016;2024-02-21T05:33:45;101100.78;;;6.13;77.42
42297;BME280;72430;47.456;19.016;2024-02-21T05:36:47;101095.31;;;6.30;76.29
42297;BME280;72430;47.456;19.016;2024-02-21T05:39:51;101097.53;;;6.38;75.41
42297;BME280;72430;47.456;19.016;2024-02-21T05:42:52;101097.06;;;6.46;75.41
42297;BME280;72430;47.456;19.016;2024-02-21T05:45:54;101099.66;;;6.48;75.10
42297;BME280;72430;47.456;19.016;2024-02-21T05:48:56;101101.84;;;6.41;75.27
42297;BME280;72430;47.456;19.016;2024-02-21T05:51:58;101097.97;;;6.30;75.91
42297;BME280;72430;47.456;19.016;2024-02-21T05:55:00;101109.81;;;6.26;76.87
42297;BME280;72430;47.456;19.016;2024-02-21T05:58:02;101117.97;;;5.93;77.54
42297;BME280;72430;47.456;19.016;2024-02-21T06:01:04;101117.44;;;6.02;77.99
42297;BME280;72430;47.456;19.016;2024-02-21T06:04:08;101115.88;;;6.14;76.74
42297;BME280;72430;47.456;19.016;2024-02-21T06:07:10;101119.88;;;5.90;77.09
42297;BME280;72430;47.456;19.016;2024-02-21T06:10:12;101118.47;;;5.99;77.44
42297;BME280;72430;47.456;19.016;2024-02-21T06:13:14;101114.44;;;5.92;77.92
42297;BME280;72430;47.456;19.016;2024-02-21T06:16:16;101112.25;;;5.99;77.73
42297;BME280;72430;47.456;19.016;2024-02-21T06:19:18;101114.16;;;6.13;76.46
42297;BME280;72430;47.456;19.016;2024-02-21T06:22:20;101126.16;;;6.06;77.56
42297;BME280;72430;47.456;19.016;2024-02-21T06:25:22;101118.91;;;6.08;76.99
42297;BME280;72430;47.456;19.016;2024-02-21T06:28:24;101125.69;;;6.29;75.84
42297;BME280;72430;47.456;19.016;2024-02-21T06:31:26;101111.34;;;6.30;76.77
42297;BME280;72430;47.456;19.016;2024-02-21T06:34:28;101125.53;;;6.47;76.63
42297;BME280;72430;47.456;19.016;2024-02-21T06:37:34;101122.72;;;6.34;77.36
42297;BME280;72430;47.456;19.016;2024-02-21T06:40:36;101126.81;;;6.25;76.75
42297;BME280;72430;47.456;19.016;2024-02-21T06:43:41;101124.69;;;6.16;78.62
42297;BME280;72430;47.456;19.016;2024-02-21T06:46:43;101125.31;;;6.36;78.08
42297;BME280;72430;47.456;19.016;2024-02-21T06:49:48;101119.16;;;6.64;77.79
42297;BME280;72430;47.456;19.016;2024-02-21T06:52:51;101112.09;;;6.92;77.22
42297;BME280;72430;47.456;19.016;2024-02-21T06:55:52;101107.69;;;7.06;76.01
42297;BME280;72430;47.456;19.016;2024-02-21T06:58:57;101108.19;;;7.27;75.13
42297;BME280;72430;47.456;19.016;2024-02-21T07:01:59;101110.50;;;7.46;74.05
42297;BME280;72430;47.456;19.016;2024-02-21T07:05:02;101118.03;;;7.69;73.44
42297;BME280;72430;47.456;19.016;2024-02-21T07:08:04;101111.34;;;7.89;71.95
42297;BME280;72430;47.456;19.016;2024-02-21T07:11:06;101119.66;;;8.12;71.04
42297;BME280;72430;47.456;19.016;2024-02-21T07:14:08;101125.28;;;8.22;70.55
42297;BME280;72430;47.456;19.016;2024-02-21T07:17:10;101129.97;;;8.18;71.95
42297;BME280;72430;47.456;19.016;2024-02-21T07:20:12;101118.03;;;8.37;71.08
42297;BME280;72430;47.456;19.016;2024-02-21T07:23:14;101140.00;;;8.42;69.98
42297;BME280;72430;47.456;19.016;2024-02-21T07:26:15;101138.44;;;8.52;69.98
42297;BME280;72430;47.456;19.016;2024-02-21T07:29:17;101138.56;;;8.64;69.62
42297;BME280;72430;47.456;19.016;2024-02-21T07:32:19;101140.53;;;8.75;68.82
42297;BME280;72430;47.456;19.016;2024-02-21T07:35:21;101145.38;;;8.42;70.57
42297;BME280;72430;47.456;19.016;2024-02-21T07:38:23;101135.84;;;8.38;70.75
42297;BME280;72430;47.456;19.016;2024-02-21T07:41:25;101134.94;;;8.24;70.92
42297;BME280;72430;47.456;19.016;2024-02-21T07:44:27;101139.50;;;8.50;70.35
42297;BME280;72430;47.456;19.016;2024-02-21T07:47:29;101147.72;;;8.87;70.37
42297;BME280;72430;47.456;19.016;2024-02-21T07:50:31;101145.34;;;9.08;70.60
42297;BME280;72430;47.456;19.016;2024-02-21T07:53:33;101141.88;;;9.32;68.25
42297;BME280;72430;47.456;19.016;2024-02-21T07:56:34;101133.41;;;9.63;66.27
42297;BME280;72430;47.456;19.016;2024-02-21T07:59:36;101138.19;;;9.84;68.16
42297;BME280;72430;47.456;19.016;2024-02-21T08:02:38;101145.09;;;10.24;67.49
42297;BME280;72430;47.456;19.016;2024-02-21T08:05:40;101148.00;;;10.45;65.73
42297;BME280;72430;47.456;19.016;2024-02-21T08:08:42;101144.34;;;10.57;63.35
42297;BME280;72430;47.456;19.016;2024-02-21T08:11:45;101141.47;;;10.72;62.55
42297;BME280;72430;47.456;19.016;2024-02-21T08:14:47;101140.03;;;10.91;61.44
42297;BME280;72430;47.456;19.016;2024-02-21T08:17:48;101141.00;;;11.01;60.98
42297;BME280;72430;47.456;19.016;2024-02-21T08:20:50;101147.50;;;10.87;61.51
42297;BME280;72430;47.456;19.016;2024-02-21T08:23:52;101130.25;;;11.12;61.47
42297;BME280;72430;47.456;19.016;2024-02-21T08:26:55;101138.22;;;11.03;58.82
42297;BME280;72430;47.456;19.016;2024-02-21T08:29:57;101138.81;;;10.95;59.71
42297;BME280;72430;47.456;19.016;2024-02-21T08:32:59;101139.81;;;11.05;61.08
42297;BME280;72430;47.456;19.016;2024-02-21T08:36:01;101141.03;;;11.35;60.58
42297;BME280;72430;47.456;19.016;2024-02-21T08:39:04;101142.63;;;11.38;58.93
42297;BME280;72430;47.456;19.016;2024-02-21T08:42:06;101139.03;;;11.37;59.05
42297;BME280;72430;47.456;19.016;2024-02-21T08:45:09;101133.25;;;11.65;58.11
42297;BME280;72430;47.456;19.016;2024-02-21T08:48:10;101126.81;;;11.77;56.56
42297;BME280;72430;47.456;19.016;2024-02-21T08:51:13;101134.81;;;11.79;55.53
42297;BME280;72430;47.456;19.016;2024-02-21T08:54:15;101136.88;;;11.87;56.32
42297;BME280;72430;47.456;19.016;2024-02-21T08:57:19;101130.88;;;11.83;56.18
42297;BME280;72430;47.456;19.016;2024-02-21T09:00:21;101137.81;;;11.53;56.71
42297;BME280;72430;47.456;19.016;2024-02-21T09:03:30;101133.72;;;11.70;56.73
42297;BME280;72430;47.456;19.016;2024-02-21T09:06:32;101131.53;;;11.64;56.25
42297;BME280;72430;47.456;19.016;2024-02-21T09:09:35;101133.63;;;11.60;56.65
42297;BME280;72430;47.456;19.016;2024-02-21T09:12:37;101124.88;;;11.79;56.40
42297;BME280;72430;47.456;19.016;2024-02-21T09:15:39;101125.03;;;12.11;56.72
42297;BME280;72430;47.456;19.016;2024-02-21T09:18:41;101119.66;;;12.11;55.13
42297;BME280;72430;47.456;19.016;2024-02-21T09:21:43;101117.16;;;12.40;55.30
42297;BME280;72430;47.456;19.016;2024-02-21T09:24:44;101116.31;;;12.61;55.33
42297;BME280;72430;47.456;19.016;2024-02-21T09:27:46;101115.50;;;12.92;52.36
42297;BME280;72430;47.456;19.016;2024-02-21T09:30:50;101119.97;;;13.12;52.41
42297;BME280;72430;47.456;19.016;2024-02-21T09:33:52;101117.78;;;13.37;51.35
42297;BME280;72430;47.456;19.016;2024-02-21T09:36:54;101117.22;;;13.94;51.03
42297;BME280;72430;47.456;19.016;2024-02-21T09:39:56;101119.22;;;14.12;48.11
42297;BME280;72430;47.456;19.016;2024-02-21T09:43:04;101121.34;;;14.28;48.97
42297;BME280;72430;47.456;19.016;2024-02-21T09:46:15;101122.34;;;14.57;50.25
42297;BME280;72430;47.456;19.016;2024-02-21T09:49:30;101125.72;;;14.69;49.38
42297;BME280;72430;47.456;19.016;2024-02-21T09:52:35;101126.50;;;14.31;46.74
42297;BME280;72430;47.456;19.016;2024-02-21T09:55:39;101124.59;;;13.73;46.74
42297;BME280;72430;47.456;19.016;2024-02-21T09:58:42;101122.63;;;13.75;47.77
42297;BME280;72430;47.456;19.016;2024-02-21T10:01:45;101118.78;;;13.77;46.99
42297;BME280;72430;47.456;19.016;2024-02-21T10:04:48;101117.44;;;14.70;48.85
42297;BME280;72430;47.456;19.016;2024-02-21T10:07:54;101107.03;;;14.56;47.62
42297;BME280;72430;47.456;19.016;2024-02-21T10:10:57;101099.66;;;14.58;47.61
42297;BME280;72430;47.456;19.016;2024-02-21T10:14:07;101107.47;;;14.81;47.92
42297;BME280;72430;47.456;19.016;2024-02-21T10:17:16;101102.63;;;14.74;47.08
42297;BME280;72430;47.456;19.016;2024-02-21T10:20:20;101105.13;;;14.08;46.81
42297;BME280;72430;47.456;19.016;2024-02-21T10:23:22;101096.31;;;13.05;48.28
42297;BME280;72430;47.456;19.016;2024-02-21T10:26:23;101100.22;;;13.12;48.35
42297;BME280;72430;47.456;19.016;2024-02-21T10:29:25;101089.81;;;13.48;48.83
42297;BME280;72430;47.456;19.016;2024-02-21T10:32:27;101091.88;;;13.35;48.06
42297;BME280;72430;47.456;19.016;2024-02-21T10:35:32;101087.84;;;12.88;48.14
42297;BME280;72430;47.456;19.016;2024-02-21T10:38:35;101088.38;;;13.03;48.08
42297;BME280;72430;47.456;19.016;2024-02-21T10:41:38;101089.84;;;12.86;48.44
42297;BME280;72430;47.456;19.016;2024-02-21T10:44:41;101074.88;;;13.03;49.37
42297;BME280;72430;47.456;19.016;2024-02-21T10:47:53;101066.91;;;13.11;47.23
42297;BME280;72430;47.456;19.016;2024-02-21T10:51:01;101066.69;;;13.34;47.49
42297;BME280;72430;47.456;19.016;2024-02-21T10:57:29;101057.09;;;14.01;46.57
42297;BME280;72430;47.456;19.016;2024-02-21T11:00:33;101040.97;;;15.14;45.56
42297;BME280;72430;47.456;19.016;2024-02-21T11:03:35;101039.00;;;15.07;45.29
42297;BME280;72430;47.456;19.016;2024-02-21T11:06:40;101020.75;;;16.71;46.49
42297;BME280;72430;47.456;19.016;2024-02-21T11:09:51;101008.13;;;18.79;43.79
42297;BME280;72430;47.456;19.016;2024-02-21T11:13:09;101000.59;;;20.98;39.90
42297;BME280;72430;47.456;19.016;2024-02-21T11:16:21;100996.16;;;20.67;35.00
42297;BME280;72430;47.456;19.016;2024-02-21T11:19:28;100993.22;;;19.62;35.71
42297;BME280;72430;47.456;19.016;2024-02-21T11:22:43;100991.53;;;20.22;35.90
42297;BME280;72430;47.456;19.016;2024-02-21T11:25:45;100985.19;;;19.60;37.31
42297;BME280;72430;47.456;19.016;2024-02-21T11:29:03;100987.75;;;22.01;35.56
42297;BME280;72430;47.456;19.016;2024-02-21T11:32:11;100990.66;;;21.34;33.17
42297;BME280;72430;47.456;19.016;2024-02-21T11:35:20;100996.06;;;18.73;33.79
42297;BME280;72430;47.456;19.016;2024-02-21T11:38:22;100989.69;;;18.49;35.01
42297;BME280;72430;47.456;19.016;2024-02-21T11:41:26;100986.34;;;19.19;34.74
42297;BME280;72430;47.456;19.016;2024-02-21T11:44:29;100984.91;;;19.31;34.87
42297;BME280;72430;47.456;19.016;2024-02-21T11:47:31;100966.28;;;21.83;33.41
42297;BME280;72430;47.456;19.016;2024-02-21T11:50:34;100977.19;;;22.62;32.11
42297;BME280;72430;47.456;19.016;2024-02-21T11:53:37;100970.22;;;20.63;31.61
42297;BME280;72430;47.456;19.016;2024-02-21T11:56:51;100961.50;;;19.99;31.84
42297;BME280;72430;47.456;19.016;2024-02-21T11:59:53;100976.47;;;18.13;34.64
42297;BME280;72430;47.456;19.016;2024-02-21T12:03:00;100972.91;;;17.71;35.75
42297;BME280;72430;47.456;19.016;2024-02-21T12:06:06;100967.59;;;17.36;36.26
42297;BME280;72430;47.456;19.016;2024-02-21T12:09:08;100963.00;;;16.85;37.27
42297;BME280;72430;47.456;19.016;2024-02-21T12:12:12;100969.53;;;16.58;37.29
42297;BME280;72430;47.456;19.016;2024-02-21T12:15:14;100958.13;;;16.46;37.40
42297;BME280;72430;47.456;19.016;2024-02-21T12:18:17;100960.84;;;16.19;37.77
42297;BME280;72430;47.456;19.016;2024-02-21T12:21:18;100961.72;;;16.55;40.35
42297;BME280;72430;47.456;19.016;2024-02-21T12:24:25;100951.09;;;16.78;37.32
42297;BME280;72430;47.456;19.016;2024-02-21T12:27:27;100951.31;;;16.15;36.95
42297;BME280;72430;47.456;19.016;2024-02-21T12:30:28;100947.13;;;15.76;37.74
42297;BME280;72430;47.456;19.016;2024-02-21T12:33:32;100943.56;;;15.57;37.95
42297;BME280;72430;47.456;19.016;2024-02-21T12:36:40;100943.25;;;16.67;36.96
42297;BME280;72430;47.456;19.016;2024-02-21T12:39:42;100927.44;;;18.93;36.21
42297;BME280;72430;47.456;19.016;2024-02-21T12:42:43;100921.75;;;21.52;35.36
42297;BME280;72430;47.456;19.016;2024-02-21T12:45:47;100912.41;;;22.67;30.11
42297;BME280;72430;47.456;19.016;2024-02-21T12:48:48;100904.38;;;23.89;27.23
42297;BME280;72430;47.456;19.016;2024-02-21T12:51:50;100908.78;;;24.76;25.93
42297;BME280;72430;47.456;19.016;2024-02-21T12:54:52;100897.75;;;25.54;25.76
42297;BME280;72430;47.456;19.016;2024-02-21T12:58:03;100893.47;;;27.08;23.49
42297;BME280;72430;47.456;19.016;2024-02-21T13:01:06;100884.50;;;27.25;25.83
42297;BME280;72430;47.456;19.016;2024-02-21T13:04:08;100893.28;;;28.41;22.67
42297;BME280;72430;47.456;19.016;2024-02-21T13:07:10;100885.38;;;27.49;22.89
42297;BME280;72430;47.456;19.016;2024-02-21T13:10:11;100892.72;;;27.01;23.47
42297;BME280;72430;47.456;19.016;2024-02-21T13:13:13;100893.19;;;25.67;24.87
42297;BME280;72430;47.456;19.016;2024-02-21T13:16:15;100883.41;;;25.90;23.71
42297;BME280;72430;47.456;19.016;2024-02-21T13:19:17;100875.13;;;27.26;22.09
42297;BME280;72430;47.456;19.016;2024-02-21T13:22:20;100864.00;;;27.68;22.10
42297;BME280;72430;47.456;19.016;2024-02-21T13:25:23;100887.97;;;24.42;23.12
42297;BME280;72430;47.456;19.016;2024-02-21T13:28:25;100874.78;;;25.28;23.14
42297;BME280;72430;47.456;19.016;2024-02-21T13:31:27;100872.47;;;23.68;24.90
42297;BME280;72430;47.456;19.016;2024-02-21T13:34:29;100874.25;;;21.45;27.22
42297;BME280;72430;47.456;19.016;2024-02-21T13:37:31;100863.63;;;21.06;27.55
42297;BME280;72430;47.456;19.016;2024-02-21T13:40:33;100861.06;;;20.31;28.77
42297;BME280;72430;47.456;19.016;2024-02-21T13:43:35;100874.63;;;18.86;30.76
42297;BME280;72430;47.456;19.016;2024-02-21T13:46:37;100871.81;;;18.71;30.67
42297;BME280;72430;47.456;19.016;2024-02-21T13:49:39;100873.50;;;17.75;32.26
42297;BME280;72430;47.456;19.016;2024-02-21T13:52:41;100870.28;;;17.71;32.80
42297;BME280;72430;47.456;19.016;2024-02-21T13:55:43;100854.06;;;16.70;34.03
42297;BME280;72430;47.456;19.016;2024-02-21T13:58:45;100853.81;;;17.15;33.56
42297;BME280;72430;47.456;19.016;2024-02-21T14:01:47;100853.41;;;16.93;34.01
42297;BME280;72430;47.456;19.016;2024-02-21T14:04:48;100852.88;;;16.21;34.37
42297;BME280;72430;47.456;19.016;2024-02-21T14:07:50;100858.38;;;16.38;34.87
42297;BME280;72430;47.456;19.016;2024-02-21T14:10:52;100859.88;;;16.32;34.66
42297;BME280;72430;47.456;19.016;2024-02-21T14:13:54;100868.00;;;16.24;34.85
42297;BME280;72430;47.456;19.016;2024-02-21T14:16:59;100858.34;;;16.30;35.40
42297;BME280;72430;47.456;19.016;2024-02-21T14:20:02;100851.59;;;16.42;35.48
42297;BME280;72430;47.456;19.016;2024-02-21T14:23:06;100851.19;;;16.20;35.41
42297;BME280;72430;47.456;19.016;2024-02-21T14:26:08;100844.00;;;16.11;36.98
42297;BME280;72430;47.456;19.016;2024-02-21T14:29:10;100842.94;;;17.15;35.59
42297;BME280;72430;47.456;19.016;2024-02-21T14:32:13;100840.38;;;17.22;34.92
42297;BME280;72430;47.456;19.016;2024-02-21T14:35:15;100839.38;;;17.06;34.55
42297;BME280;72430;47.456;19.016;2024-02-21T14:38:18;100832.75;;;16.41;35.07
42297;BME280;72430;47.456;19.016;2024-02-21T14:41:21;100840.34;;;16.29;34.68
42297;BME280;72430;47.456;19.016;2024-02-21T14:44:23;100842.25;;;16.36;35.08
42297;BME280;72430;47.456;19.016;2024-02-21T14:47:25;100835.53;;;16.14;35.45
42297;BME280;72430;47.456;19.016;2024-02-21T14:50:27;100835.69;;;16.13;35.06
42297;BME280;72430;47.456;19.016;2024-02-21T14:53:29;100834.28;;;15.74;35.57
42297;BME280;72430;47.456;19.016;2024-02-21T14:56:32;100839.50;;;16.28;35.21
42297;BME280;72430;47.456;19.016;2024-02-21T14:59:33;100828.28;;;16.23;34.59
42297;BME280;72430;47.456;19.016;2024-02-21T15:02:36;100825.56;;;16.23;35.24
42297;BME280;72430;47.456;19.016;2024-02-21T15:05:38;100820.44;;;15.85;35.91
42297;BME280;72430;47.456;19.016;2024-02-21T15:08:41;100816.66;;;15.51;37.30
42297;BME280;72430;47.456;19.016;2024-02-21T15:11:43;100813.22;;;15.94;36.12
42297;BME280;72430;47.456;19.016;2024-02-21T15:14:45;100808.69;;;15.76;35.97
42297;BME280;72430;47.456;19.016;2024-02-21T15:17:47;100810.16;;;15.70;35.02
42297;BME280;72430;47.456;19.016;2024-02-21T15:20:48;100818.59;;;15.14;36.24
42297;BME280;72430;47.456;19.016;2024-02-21T15:23:50;100813.94;;;15.25;36.31
42297;BME280;72430;47.456;19.016;2024-02-21T15:26:52;100816.66;;;15.07;36.52
42297;BME280;72430;47.456;19.016;2024-02-21T15:29:54;100815.81;;;14.88;36.87
42297;BME280;72430;47.456;19.016;2024-02-21T15:32:56;100809.22;;;14.44;38.70
42297;BME280;72430;47.456;19.016;2024-02-21T15:36:03;100804.31;;;14.58;37.56
42297;BME280;72430;47.456;19.016;2024-02-21T15:39:05;100803.66;;;14.46;37.57
42297;BME280;72430;47.456;19.016;2024-02-21T15:42:07;100803.59;;;14.38;37.92
42297;BME280;72430;47.456;19.016;2024-02-21T15:45:11;100806.38;;;14.18;37.54
42297;BME280;72430;47.456;19.016;2024-02-21T15:48:13;100798.94;;;14.02;37.80
42297;BME280;72430;47.456;19.016;2024-02-21T15:51:15;100802.91;;;14.07;38.17
42297;BME280;72430;47.456;19.016;2024-02-21T15:54:17;100804.28;;;14.12;37.92